Terminal Aerodrome Forecast
Issued by NWS Indianapolis, IN

Home | Current Version | Previous Version | Text Only | Print | Product List | Glossary On
Versions: 1 2 3 4 5 6 7 8 9 10 11 12 13 14 15 16 17 18 19 20 21 22 23
524
FTUS43 KIND 201124
TAFIND
TAF
KIND 201124Z 2012/2118 00000KT P6SM FEW200
     FM201500 VRB03KT P6SM FEW035
     FM210100 19004KT P6SM FEW200
     FM211500 19004KT P6SM SCT060 BKN200=

USA.gov is the U.S. government's official web portal to all federal, state and local government web resources and services.